createdAt,value
2023-02-21T00:02:11.321Z,3.60
2023-02-21T00:05:17.086Z,2.20
2023-02-21T00:08:22.136Z,2.40
2023-02-21T00:11:27.636Z,2.70
2023-02-21T00:14:33.083Z,2.70
2023-02-21T00:17:37.808Z,2.30
2023-02-21T00:20:42.921Z,2.90
2023-02-21T00:23:53.004Z,1.90
2023-02-21T00:26:58.765Z,2.10
2023-02-21T00:30:06.125Z,2.40
2023-02-21T00:33:11.838Z,3.00
2023-02-21T00:36:17.295Z,2.50
2023-02-21T00:39:22.582Z,4.30
2023-02-21T00:42:27.605Z,3.20
2023-02-21T00:45:33.177Z,3.30
2023-02-21T00:48:39.957Z,4.30
2023-02-21T00:51:45.074Z,4.50
2023-02-21T00:54:50.884Z,2.30
2023-02-21T00:57:56.273Z,2.20
2023-02-21T01:01:01.275Z,2.20
2023-02-21T01:04:06.471Z,1.80
2023-02-21T01:07:11.814Z,1.60
2023-02-21T01:10:16.983Z,1.60
2023-02-21T01:13:22.873Z,1.80
2023-02-21T01:16:28.325Z,1.80
2023-02-21T01:19:34.570Z,4.50
2023-02-21T01:22:40.024Z,1.60
2023-02-21T01:25:45.417Z,1.80
2023-02-21T01:28:50.293Z,1.90
2023-02-21T01:31:55.282Z,2.30
2023-02-21T01:35:00.464Z,2.60
2023-02-21T01:38:05.290Z,1.80
2023-02-21T01:41:10.536Z,2.90
2023-02-21T01:44:44.978Z,2.80
2023-02-21T01:47:51.712Z,3.30
2023-02-21T01:50:56.906Z,3.60
2023-02-21T01:54:03.654Z,4.00
2023-02-21T01:57:09.060Z,4.50
2023-02-21T02:00:16.329Z,3.90
2023-02-21T02:03:25.943Z,3.70
2023-02-21T02:06:34.159Z,3.00
2023-02-21T02:09:41.314Z,3.30
2023-02-21T02:12:54.183Z,3.20
2023-02-21T02:15:47.505Z,4.00
2023-02-21T02:19:00.852Z,3.30
2023-02-21T02:22:13.606Z,3.40
2023-02-21T02:25:23.122Z,3.10
2023-02-21T02:28:47.308Z,5.40
2023-02-21T02:32:09.288Z,2.30
2023-02-21T02:35:09.476Z,2.80
2023-02-21T02:38:07.959Z,3.40
2023-02-21T02:41:00.241Z,2.80
2023-02-21T02:44:00.007Z,2.30
2023-02-21T02:46:49.420Z,4.80
2023-02-21T02:49:41.444Z,3.80
2023-02-21T02:52:27.809Z,5.30
2023-02-21T02:55:46.234Z,4.40
2023-02-21T02:58:56.470Z,5.30
2023-02-21T03:01:49.295Z,6.00
2023-02-21T03:04:41.967Z,6.00
2023-02-21T03:07:36.710Z,5.80
2023-02-21T03:10:40.534Z,4.10
2023-02-21T03:13:36.559Z,5.30
2023-02-21T03:16:39.391Z,5.40
2023-02-21T03:19:31.382Z,3.80
2023-02-21T03:22:23.860Z,4.10
2023-02-21T03:25:11.937Z,5.20
2023-02-21T03:28:01.095Z,5.20
2023-02-21T03:30:51.211Z,4.00
2023-02-21T03:33:38.352Z,5.10
2023-02-21T03:36:24.937Z,4.40
2023-02-21T03:39:11.134Z,5.20
2023-02-21T03:41:57.900Z,4.60
2023-02-21T03:44:44.495Z,5.60
2023-02-21T03:47:31.196Z,5.30
2023-02-21T03:50:18.029Z,5.30
2023-02-21T03:53:05.194Z,6.00
2023-02-21T03:55:51.573Z,7.50
2023-02-21T03:58:38.506Z,4.70
2023-02-21T04:01:24.829Z,5.30
2023-02-21T04:04:11.423Z,6.20
2023-02-21T04:06:58.048Z,6.20
2023-02-21T04:09:44.979Z,7.20
2023-02-21T04:12:31.634Z,7.90
2023-02-21T04:15:18.322Z,5.10
2023-02-21T04:18:05.189Z,5.60
2023-02-21T04:20:52.307Z,7.70
2023-02-21T04:23:38.895Z,7.30
2023-02-21T04:26:25.306Z,7.70
2023-02-21T04:29:12.347Z,8.70
2023-02-21T04:31:58.913Z,9.60
2023-02-21T04:34:45.508Z,9.00
2023-02-21T04:37:31.975Z,8.70
2023-02-21T04:40:18.779Z,9.60
2023-02-21T04:43:05.393Z,6.70
2023-02-21T04:45:52.016Z,12.20
2023-02-21T04:48:38.734Z,11.20
2023-02-21T04:51:26.106Z,9.30
2023-02-21T04:54:14.069Z,10.20
2023-02-21T04:57:00.638Z,11.30
2023-02-21T04:59:47.541Z,9.60
2023-02-21T05:02:34.639Z,10.90
2023-02-21T05:05:21.881Z,9.40
2023-02-21T05:08:08.481Z,10.60
2023-02-21T05:10:55.075Z,7.90
2023-02-21T05:13:42.798Z,11.10
2023-02-21T05:16:29.631Z,8.40
2023-02-21T05:19:27.321Z,10.00
2023-02-21T05:22:13.983Z,8.90
2023-02-21T05:25:00.257Z,10.80
2023-02-21T05:27:47.870Z,10.40
2023-02-21T05:30:34.720Z,11.10
2023-02-21T05:33:21.105Z,8.80
2023-02-21T05:36:07.855Z,6.90
2023-02-21T05:38:55.956Z,8.30
2023-02-21T05:41:50.031Z,7.50
2023-02-21T05:44:36.653Z,10.00
2023-02-21T05:47:23.486Z,8.40
2023-02-21T05:50:09.946Z,9.20
2023-02-21T05:52:58.023Z,7.30
2023-02-21T05:55:44.458Z,8.70
2023-02-21T05:58:31.135Z,7.70
2023-02-21T06:01:18.338Z,8.00
2023-02-21T06:04:05.117Z,9.30
2023-02-21T06:06:51.803Z,9.30
2023-02-21T06:09:38.659Z,7.10
2023-02-21T06:12:25.140Z,8.00
2023-02-21T06:15:13.232Z,9.90
2023-02-21T06:18:00.164Z,11.70
2023-02-21T06:20:46.857Z,8.30
2023-02-21T06:23:33.581Z,11.70
2023-02-21T06:26:20.935Z,9.40
2023-02-21T06:29:08.262Z,10.90
2023-02-21T06:31:59.340Z,10.70
2023-02-21T06:34:46.138Z,8.80
2023-02-21T06:37:32.750Z,9.10
2023-02-21T06:40:19.588Z,10.60
2023-02-21T06:43:06.459Z,12.80
2023-02-21T06:45:52.992Z,11.10
2023-02-21T06:48:39.700Z,11.10
2023-02-21T06:51:32.006Z,9.40
2023-02-21T06:54:18.235Z,10.80
2023-02-21T06:57:05.772Z,11.00
2023-02-21T06:59:52.438Z,11.40
2023-02-21T07:02:39.328Z,11.20
2023-02-21T07:05:25.897Z,12.60
2023-02-21T07:08:12.460Z,10.60
2023-02-21T07:10:59.151Z,12.30
2023-02-21T07:13:54.247Z,10.40
2023-02-21T07:16:41.008Z,11.40
2023-02-21T07:19:27.555Z,10.80
2023-02-21T07:22:14.282Z,9.10
2023-02-21T07:25:00.852Z,10.10
2023-02-21T07:27:48.753Z,10.30
2023-02-21T07:30:35.438Z,10.90
2023-02-21T07:33:21.853Z,11.00
2023-02-21T07:36:09.092Z,8.60
2023-02-21T07:38:55.645Z,10.30
2023-02-21T07:41:42.087Z,12.70
2023-02-21T07:44:29.328Z,11.20
2023-02-21T07:47:16.316Z,12.20
2023-02-21T07:50:03.881Z,11.90
2023-02-21T07:52:50.786Z,11.90
2023-02-21T07:55:37.311Z,11.10
2023-02-21T07:58:23.888Z,13.20
2023-02-21T08:01:10.629Z,8.90
2023-02-21T08:03:57.368Z,13.00
2023-02-21T08:06:43.849Z,11.40
2023-02-21T08:09:30.965Z,10.70
2023-02-21T08:12:17.361Z,9.30
2023-02-21T08:15:05.464Z,10.20
2023-02-21T08:17:53.222Z,10.30
2023-02-21T08:20:39.700Z,12.30
2023-02-21T08:23:26.370Z,12.80
2023-02-21T08:26:12.952Z,10.60
2023-02-21T08:28:59.237Z,16.50
2023-02-21T08:31:46.025Z,15.00
2023-02-21T08:34:32.906Z,11.70
2023-02-21T08:37:20.338Z,12.00
2023-02-21T08:40:07.242Z,11.30
2023-02-21T08:42:55.462Z,13.70
2023-02-21T08:45:42.148Z,11.70
2023-02-21T08:48:28.650Z,11.40
2023-02-21T08:51:15.444Z,11.00
2023-02-21T08:54:03.673Z,10.80
2023-02-21T08:56:50.181Z,12.60
2023-02-21T08:59:42.675Z,11.10
2023-02-21T09:02:30.637Z,10.80
2023-02-21T09:05:21.210Z,12.60
2023-02-21T09:08:10.377Z,12.00
2023-02-21T09:11:01.133Z,11.80
2023-02-21T09:13:50.354Z,11.10
2023-02-21T09:16:36.758Z,12.40
2023-02-21T09:19:23.267Z,12.80
2023-02-21T09:22:10.668Z,12.30
2023-02-21T09:24:57.771Z,14.00
2023-02-21T09:27:44.117Z,10.60
2023-02-21T09:30:31.945Z,12.30
2023-02-21T09:33:18.876Z,13.30
2023-02-21T09:36:05.464Z,10.20
2023-02-21T09:38:52.074Z,13.70
2023-02-21T09:41:40.521Z,11.10
2023-02-21T09:44:29.519Z,12.70
2023-02-21T09:47:28.330Z,11.90
2023-02-21T09:50:16.652Z,14.00
2023-02-21T09:53:03.411Z,13.50
2023-02-21T09:55:53.899Z,12.30
2023-02-21T09:58:46.134Z,14.30
2023-02-21T10:01:59.592Z,9.40
2023-02-21T10:05:22.311Z,10.90
2023-02-21T10:08:19.293Z,11.20
2023-02-21T10:11:24.456Z,13.70
2023-02-21T10:14:30.220Z,12.20
2023-02-21T10:17:50.607Z,13.50
2023-02-21T10:20:49.610Z,10.00
2023-02-21T10:23:43.773Z,10.70
2023-02-21T10:26:38.328Z,9.70
2023-02-21T10:29:30.385Z,9.20
2023-02-21T10:32:17.439Z,11.30
2023-02-21T10:35:04.782Z,11.10
2023-02-21T10:37:55.066Z,12.50
2023-02-21T10:40:50.431Z,12.10
2023-02-21T10:43:53.167Z,10.30
2023-02-21T10:46:45.506Z,9.10
2023-02-21T10:49:44.135Z,12.20
2023-02-21T10:52:50.040Z,12.50
2023-02-21T10:55:36.718Z,12.60
2023-02-21T10:58:27.751Z,12.20
2023-02-21T11:01:18.892Z,11.10
2023-02-21T11:04:22.767Z,10.40
2023-02-21T11:07:12.053Z,12.00
2023-02-21T11:09:59.567Z,14.70
2023-02-21T11:13:21.664Z,13.80
2023-02-21T11:16:08.136Z,15.20
2023-02-21T11:19:14.606Z,12.10
2023-02-21T11:22:04.536Z,11.30
2023-02-21T11:25:00.705Z,14.00
2023-02-21T11:27:59.120Z,13.60
2023-02-21T11:31:10.411Z,11.10
2023-02-21T11:34:00.376Z,13.50
2023-02-21T11:36:49.687Z,14.40
2023-02-21T11:39:35.994Z,11.60
2023-02-21T11:42:33.206Z,10.60
2023-02-21T11:45:48.256Z,13.90
2023-02-21T11:48:44.887Z,10.70
2023-02-21T11:51:31.349Z,12.80
2023-02-21T11:54:22.386Z,11.70
2023-02-21T11:57:36.884Z,11.70
2023-02-21T12:00:39.863Z,11.40
2023-02-21T12:03:35.993Z,12.30
2023-02-21T12:07:08.639Z,14.60
2023-02-21T12:10:19.394Z,13.20
2023-02-21T12:13:14.771Z,11.90
2023-02-21T12:16:22.096Z,10.70
2023-02-21T12:19:30.147Z,10.70
2023-02-21T12:22:39.582Z,10.20
2023-02-21T12:25:50.280Z,11.00
2023-02-21T12:29:21.457Z,8.70
2023-02-21T12:32:13.582Z,11.50
2023-02-21T12:35:33.235Z,11.30
2023-02-21T12:38:36.829Z,10.30
2023-02-21T12:41:37.264Z,11.50
2023-02-21T12:45:10.957Z,10.10
2023-02-21T12:48:15.995Z,11.00
2023-02-21T12:51:08.097Z,10.60
2023-02-21T12:54:05.975Z,9.90
2023-02-21T12:56:57.345Z,9.70
2023-02-21T13:00:17.647Z,11.60
2023-02-21T13:03:18.873Z,12.50
2023-02-21T13:06:16.978Z,12.00
2023-02-21T13:09:06.588Z,10.30
2023-02-21T13:12:14.550Z,8.90
2023-02-21T13:15:14.521Z,9.30
2023-02-21T13:18:16.856Z,10.80
2023-02-21T13:21:23.065Z,6.50
2023-02-21T13:24:21.015Z,8.30
2023-02-21T13:27:26.305Z,9.00
2023-02-21T13:30:19.439Z,8.20
2023-02-21T13:33:06.778Z,8.80
2023-02-21T13:35:54.219Z,9.90
2023-02-21T13:38:40.976Z,9.10
2023-02-21T13:41:30.643Z,10.30
2023-02-21T13:44:40.342Z,9.30
2023-02-21T13:47:27.369Z,12.20
2023-02-21T13:50:35.130Z,10.30
2023-02-21T13:53:26.431Z,10.40
2023-02-21T13:56:16.362Z,9.00
2023-02-21T13:59:33.191Z,9.10
2023-02-21T14:02:32.997Z,11.60
2023-02-21T14:05:19.768Z,10.30
2023-02-21T14:08:07.709Z,12.30
2023-02-21T14:11:05.194Z,11.60
2023-02-21T14:14:02.217Z,12.40
2023-02-21T14:16:50.463Z,10.50
2023-02-21T14:19:59.647Z,12.80
2023-02-21T14:22:49.596Z,12.00
2023-02-21T14:25:37.219Z,11.20
2023-02-21T14:28:51.107Z,14.50
2023-02-21T14:31:52.106Z,12.20
2023-02-21T14:34:47.493Z,11.50
2023-02-21T14:37:51.256Z,15.10
2023-02-21T14:40:58.674Z,15.80
2023-02-21T14:43:55.602Z,11.70
2023-02-21T14:47:00.995Z,13.70
2023-02-21T14:50:05.844Z,12.90
2023-02-21T14:53:29.961Z,14.10
2023-02-21T14:56:47.117Z,14.40
2023-02-21T14:59:49.642Z,14.10
2023-02-21T15:02:50.634Z,15.00
2023-02-21T15:05:54.889Z,14.30
2023-02-21T15:08:44.183Z,16.80
2023-02-21T15:11:38.396Z,18.20
2023-02-21T15:14:29.474Z,16.00
2023-02-21T15:17:25.871Z,17.10
2023-02-21T15:20:17.820Z,19.50
2023-02-21T15:23:12.675Z,16.50
2023-02-21T15:26:21.988Z,16.30
2023-02-21T15:29:12.262Z,18.90
2023-02-21T15:32:00.218Z,24.10
2023-02-21T15:34:47.992Z,16.70
2023-02-21T15:37:38.753Z,19.50
2023-02-21T15:40:27.613Z,20.70
2023-02-21T15:43:27.497Z,20.80
2023-02-21T15:46:20.873Z,17.90
2023-02-21T15:49:08.032Z,20.40
2023-02-21T15:51:54.996Z,20.50
2023-02-21T15:54:41.531Z,21.30
2023-02-21T15:57:28.117Z,20.30
2023-02-21T16:00:29.310Z,19.80
2023-02-21T16:03:42.872Z,22.40
2023-02-21T16:06:32.336Z,18.70
2023-02-21T16:09:25.542Z,21.60
2023-02-21T16:12:12.088Z,22.00
2023-02-21T16:15:02.121Z,21.60
2023-02-21T16:17:57.776Z,18.50
2023-02-21T16:20:45.239Z,18.00
2023-02-21T16:23:33.764Z,24.50
2023-02-21T16:26:28.346Z,21.20
2023-02-21T16:29:14.839Z,20.50
2023-02-21T16:32:01.643Z,22.60
2023-02-21T16:34:54.732Z,18.70
2023-02-21T16:37:43.871Z,19.60
2023-02-21T16:40:34.151Z,19.30
2023-02-21T16:43:26.053Z,22.60
2023-02-21T16:46:13.742Z,19.20
2023-02-21T16:49:00.140Z,20.50
2023-02-21T16:51:48.021Z,21.30
2023-02-21T16:54:34.239Z,21.30
2023-02-21T16:57:20.916Z,20.50
2023-02-21T17:00:08.447Z,21.20
2023-02-21T17:02:55.140Z,19.60
2023-02-21T17:05:41.865Z,18.80
2023-02-21T17:08:29.305Z,20.90
2023-02-21T17:11:16.178Z,20.00
2023-02-21T17:14:03.183Z,20.90
2023-02-21T17:16:49.600Z,18.40
2023-02-21T17:19:36.247Z,20.40
2023-02-21T17:22:22.830Z,21.00
2023-02-21T17:25:09.893Z,22.70
2023-02-21T17:27:56.578Z,17.50
2023-02-21T17:30:43.357Z,21.90
2023-02-21T17:33:29.964Z,19.40
2023-02-21T17:36:22.465Z,22.20
2023-02-21T17:39:08.833Z,19.70
2023-02-21T17:41:56.065Z,18.30
2023-02-21T17:44:47.396Z,19.30
2023-02-21T17:47:35.583Z,20.50
2023-02-21T17:50:22.271Z,19.50
2023-02-21T17:53:08.847Z,20.30
2023-02-21T17:55:56.403Z,20.20
2023-02-21T17:58:42.764Z,19.60
2023-02-21T18:01:29.483Z,19.90
2023-02-21T18:04:16.480Z,18.50
2023-02-21T18:07:03.888Z,22.00
2023-02-21T18:09:50.358Z,20.60
2023-02-21T18:12:37.212Z,21.60
2023-02-21T18:15:27.519Z,18.30
2023-02-21T18:18:14.418Z,15.90
2023-02-21T18:21:02.435Z,24.70
2023-02-21T18:23:51.811Z,22.50
2023-02-21T18:26:39.071Z,21.40
2023-02-21T18:29:27.143Z,21.80
2023-02-21T18:32:15.068Z,18.20
2023-02-21T18:35:01.343Z,20.00
2023-02-21T18:37:48.557Z,19.10
2023-02-21T18:40:37.614Z,17.50
2023-02-21T18:43:27.542Z,19.90
2023-02-21T18:46:16.653Z,18.40
2023-02-21T18:49:03.086Z,20.60
2023-02-21T18:51:50.132Z,18.30
2023-02-21T18:54:36.760Z,20.50
2023-02-21T18:57:23.192Z,21.50
2023-02-21T19:00:12.034Z,21.10
2023-02-21T19:02:58.561Z,19.70
2023-02-21T19:05:45.157Z,19.00
2023-02-21T19:08:34.477Z,17.90
2023-02-21T19:11:20.940Z,20.00
2023-02-21T19:14:07.614Z,19.70
2023-02-21T19:16:54.606Z,19.60
2023-02-21T19:19:41.044Z,20.00
2023-02-21T19:22:27.822Z,23.00
2023-02-21T19:25:16.728Z,18.20
2023-02-21T19:28:03.377Z,21.70
2023-02-21T19:30:50.033Z,22.80
2023-02-21T19:33:37.728Z,20.60
2023-02-21T19:36:24.259Z,21.10
2023-02-21T19:39:11.689Z,26.00
2023-02-21T19:41:58.449Z,21.80
2023-02-21T19:44:45.103Z,21.10
2023-02-21T19:47:31.779Z,104.40
2023-02-21T19:50:18.532Z,22.80
2023-02-21T19:53:05.075Z,20.70
2023-02-21T19:55:52.009Z,25.10
2023-02-21T19:58:39.284Z,22.40
2023-02-21T20:01:26.532Z,21.80
2023-02-21T20:04:13.004Z,24.10
2023-02-21T20:06:59.639Z,23.20
2023-02-21T20:09:48.106Z,19.30
2023-02-21T20:12:34.644Z,19.90
2023-02-21T20:15:21.600Z,19.00
2023-02-21T20:18:08.132Z,20.90
2023-02-21T20:20:54.573Z,22.60
2023-02-21T20:23:41.369Z,27.90
2023-02-21T20:26:29.962Z,22.60
2023-02-21T20:29:17.192Z,18.90
2023-02-21T20:32:03.929Z,18.70
2023-02-21T20:34:54.300Z,21.30
2023-02-21T20:37:41.087Z,20.30
2023-02-21T20:40:27.479Z,20.70
2023-02-21T20:43:14.185Z,18.90
2023-02-21T20:46:00.639Z,15.70
2023-02-21T20:48:56.848Z,22.50
2023-02-21T20:51:43.842Z,20.40
2023-02-21T20:54:30.840Z,23.50
2023-02-21T20:57:17.286Z,21.60
2023-02-21T21:00:09.116Z,20.40
2023-02-21T21:02:55.498Z,16.80
2023-02-21T21:05:43.727Z,22.10
2023-02-21T21:08:30.202Z,16.90
2023-02-21T21:11:16.935Z,19.90
2023-02-21T21:14:03.843Z,19.70
2023-02-21T21:16:52.434Z,24.90
2023-02-21T21:19:39.905Z,24.90
2023-02-21T21:22:28.815Z,40.30
2023-02-21T21:25:17.490Z,25.10
2023-02-21T21:28:05.614Z,20.10
2023-02-21T21:30:51.886Z,20.10
2023-02-21T21:33:38.489Z,18.60
2023-02-21T21:36:26.553Z,18.90
2023-02-21T21:39:14.862Z,19.70
2023-02-21T21:42:05.903Z,19.40
2023-02-21T21:44:54.608Z,20.90
2023-02-21T21:47:41.898Z,20.00
2023-02-21T21:50:28.480Z,16.30
2023-02-21T21:53:15.103Z,14.60
2023-02-21T21:56:04.747Z,14.20
2023-02-21T21:58:51.089Z,13.40
2023-02-21T22:01:41.430Z,14.30
2023-02-21T22:04:28.328Z,12.80
2023-02-21T22:07:15.338Z,13.20
2023-02-21T22:10:01.877Z,11.40
2023-02-21T22:12:51.546Z,11.20
2023-02-21T22:15:37.816Z,9.70
2023-02-21T22:18:24.296Z,11.30
2023-02-21T22:21:14.217Z,11.10
2023-02-21T22:24:01.533Z,11.50
2023-02-21T22:26:48.834Z,10.40
2023-02-21T22:29:35.809Z,12.10
2023-02-21T22:32:22.555Z,10.70
2023-02-21T22:35:18.105Z,11.90
2023-02-21T22:38:07.543Z,12.70
2023-02-21T22:40:54.100Z,11.80
2023-02-21T22:43:40.568Z,11.40
2023-02-21T22:46:29.157Z,12.60
2023-02-21T22:49:18.958Z,12.20
2023-02-21T22:52:05.383Z,12.60
2023-02-21T22:54:52.998Z,13.20
2023-02-21T22:57:39.306Z,13.50
2023-02-21T23:00:35.232Z,14.90
2023-02-21T23:03:21.626Z,15.90
2023-02-21T23:06:08.236Z,14.90
2023-02-21T23:08:54.923Z,15.20
2023-02-21T23:11:47.153Z,17.40
2023-02-21T23:14:36.583Z,16.40
2023-02-21T23:17:22.916Z,13.60
2023-02-21T23:20:17.442Z,14.30
2023-02-21T23:23:04.505Z,18.20
2023-02-21T23:25:52.274Z,15.70
2023-02-21T23:28:38.681Z,15.90
2023-02-21T23:31:25.169Z,14.60
2023-02-21T23:34:15.633Z,15.00
2023-02-21T23:37:07.444Z,15.80
2023-02-21T23:39:54.548Z,13.90
2023-02-21T23:42:41.147Z,16.10
2023-02-21T23:45:27.819Z,16.60
2023-02-21T23:48:15.726Z,15.50
2023-02-21T23:51:02.229Z,15.00
2023-02-21T23:53:48.870Z,15.90
2023-02-21T23:56:35.839Z,14.60
2023-02-21T23:59:22.509Z,15.10
